Decoded Metar for KESN (EASTON/NEWNAM in MD, USA) (IATA:ESN) | Meteo·Mobile Aviation Weather
aviador You're here:

KESN Decoded Metar

EASTON/NEWNAM in MD, USA
Report Time2018-08-22 04:27:00
UTC Time2018-08-22 04:29:50
Flight Rules vfr VFR
Wind220° at 04 kt
W.Decomp.*RWY 22: 3.9 kt HW 0.7 kt RCW
RWY 15: 0.7 kt HW 3.9 kt RCW
W.Rank220° ranks 1
Current wind is below 220° avg. (8.0)
Visibility9999 m
Phenomena:N/A
Clouds:N/A
Expected CloudBase > 400 ft AGL from Temp-Dew spread
CeilingNone
Temp25°C (ISA +10)
Dew Point24°C (94% RH)
QNH1012 hPa
Density Alt1,670 ft
Elevation72 ft
Report Wrong Elevation
Raw Report
METAR KESN 220427Z AUTO 22004KT 10SM CLR 25/24 A2987 RMK AO2 T02500241=

Extra information for KESN:More info

Metar Taf Metar & Taf Last 4 Metars F.Rules Stats Wind Profile Meteogram Temp Stats Airport Information Weather charts Add Link Nearby VenuesMetar ALERT Operation Metar Decoded Social comments

AIRNAV info for KESN